createdAt,value
2023-02-07T00:05:45.748Z,42.40
2023-02-07T00:09:26.436Z,43.50
2023-02-07T00:15:56.834Z,41.50
2023-02-07T00:19:14.542Z,40.30
2023-02-07T00:22:43.300Z,39.60
2023-02-07T00:26:19.230Z,35.70
2023-02-07T00:30:29.906Z,38.10
2023-02-07T00:33:22.403Z,35.50
2023-02-07T00:36:51.225Z,35.20
2023-02-07T00:40:41.210Z,36.00
2023-02-07T01:01:37.969Z,36.60
2023-02-07T01:05:30.743Z,40.20
2023-02-07T01:08:37.632Z,36.60
2023-02-07T01:12:07.488Z,34.80
2023-02-07T01:15:29.295Z,35.00
2023-02-07T01:18:41.736Z,36.80
2023-02-07T01:26:15.819Z,33.70
2023-02-07T01:29:41.910Z,33.70
2023-02-07T01:33:12.596Z,34.60
2023-02-07T01:40:25.454Z,31.20
2023-02-07T01:44:04.224Z,31.90
2023-02-07T01:47:35.405Z,25.60
2023-02-07T01:51:05.177Z,30.20
2023-02-07T01:54:31.868Z,31.80
2023-02-07T01:58:00.353Z,31.00
2023-02-07T02:01:10.926Z,36.60
2023-02-07T02:08:26.884Z,31.70
2023-02-07T02:12:09.563Z,31.40
2023-02-07T02:22:51.285Z,30.60
2023-02-07T02:30:08.205Z,31.70
2023-02-07T02:34:08.005Z,31.30
2023-02-07T02:41:19.843Z,30.60
2023-02-07T02:44:37.695Z,29.90
2023-02-07T02:51:30.751Z,29.90
2023-02-07T02:58:57.419Z,30.30
2023-02-07T03:02:43.448Z,30.20
2023-02-07T03:14:20.766Z,31.20
2023-02-07T03:17:38.270Z,32.40
2023-02-07T03:24:24.158Z,32.20
2023-02-07T03:27:56.506Z,31.10
2023-02-07T03:32:08.687Z,30.60
2023-02-07T03:36:03.364Z,29.50
2023-02-07T03:42:33.189Z,26.10
2023-02-07T03:46:09.929Z,28.90
2023-02-07T03:57:13.688Z,28.70
2023-02-07T04:00:03.717Z,27.30
2023-02-07T04:03:02.842Z,25.80
2023-02-07T04:05:59.497Z,29.70
2023-02-07T04:09:11.777Z,28.90
2023-02-07T04:15:12.643Z,27.10
2023-02-07T04:18:30.003Z,27.90
2023-02-07T04:21:08.645Z,26.40
2023-02-07T04:23:43.344Z,26.90
2023-02-07T04:26:28.657Z,26.80
2023-02-07T04:29:44.298Z,29.60
2023-02-07T04:32:26.867Z,28.20
2023-02-07T04:35:22.119Z,30.40
2023-02-07T04:38:23.643Z,27.90
2023-02-07T04:41:11.600Z,27.00
2023-02-07T04:44:09.237Z,27.60
2023-02-07T04:47:09.411Z,26.80
2023-02-07T04:49:54.944Z,26.70
2023-02-07T04:53:06.578Z,25.40
2023-02-07T04:56:02.883Z,26.30
2023-02-07T04:59:23.482Z,26.10
2023-02-07T05:02:33.055Z,25.80
2023-02-07T05:06:02.906Z,25.20
2023-02-07T05:10:07.637Z,25.00
2023-02-07T05:13:22.718Z,24.20
2023-02-07T05:16:08.156Z,25.50
2023-02-07T05:19:06.480Z,25.70
2023-02-07T05:21:54.804Z,24.30
2023-02-07T05:24:44.199Z,23.90
2023-02-07T05:27:35.755Z,25.40
2023-02-07T05:30:28.283Z,23.70
2023-02-07T05:33:10.425Z,23.50
2023-02-07T05:36:18.463Z,23.30
2023-02-07T05:39:17.278Z,22.90
2023-02-07T05:42:28.465Z,23.70
2023-02-07T05:45:36.065Z,22.30
2023-02-07T05:48:54.821Z,20.30
2023-02-07T05:51:40.197Z,22.10
2023-02-07T05:54:32.840Z,23.40
2023-02-07T05:57:14.544Z,23.80
2023-02-07T06:00:13.499Z,22.40
2023-02-07T06:03:07.930Z,24.10
2023-02-07T06:05:57.639Z,25.60
2023-02-07T06:08:57.287Z,22.70
2023-02-07T06:11:41.201Z,22.10
2023-02-07T06:14:29.546Z,22.70
2023-02-07T06:17:41.838Z,23.10
2023-02-07T06:20:32.008Z,22.70
2023-02-07T06:23:14.301Z,24.20
2023-02-07T06:26:33.290Z,23.70
2023-02-07T06:29:38.369Z,23.40
2023-02-07T06:32:56.611Z,24.70
2023-02-07T06:40:33.406Z,25.80
2023-02-07T06:43:46.678Z,23.60
2023-02-07T06:50:20.493Z,22.20
2023-02-07T06:53:24.603Z,22.40
2023-02-07T07:18:00.589Z,20.70
2023-02-07T07:21:36.618Z,23.80
2023-02-07T07:25:07.372Z,25.20
2023-02-07T07:28:36.864Z,22.80
2023-02-07T07:32:22.415Z,23.50
2023-02-07T07:35:55.677Z,21.50
2023-02-07T07:39:21.302Z,23.80
2023-02-07T07:42:44.375Z,23.20
2023-02-07T07:46:08.423Z,22.10
2023-02-07T07:49:28.092Z,22.30
2023-02-07T08:00:05.642Z,22.80
2023-02-07T08:25:40.177Z,26.90
2023-02-07T08:28:55.606Z,24.40
2023-02-07T08:35:44.252Z,22.20
2023-02-07T08:39:06.822Z,21.30
2023-02-07T08:42:38.156Z,21.80
2023-02-07T08:46:05.620Z,22.10
2023-02-07T08:49:33.874Z,35.90
2023-02-07T08:52:42.952Z,39.70
2023-02-07T08:56:05.193Z,25.60
2023-02-07T09:02:53.322Z,20.80
2023-02-07T09:07:14.484Z,21.60
2023-02-07T09:10:45.933Z,22.10
2023-02-07T09:18:22.688Z,20.70
2023-02-07T09:21:35.068Z,19.00
2023-02-07T09:27:59.912Z,19.40
2023-02-07T09:31:31.905Z,19.80
2023-02-07T09:34:56.668Z,19.70
2023-02-07T09:45:37.101Z,21.50
2023-02-07T09:49:07.959Z,21.60
2023-02-07T09:52:48.014Z,22.60
2023-02-07T10:00:10.272Z,22.20
2023-02-07T10:09:56.840Z,16.50
2023-02-07T10:16:59.992Z,18.80
2023-02-07T10:23:34.514Z,18.40
2023-02-07T10:27:43.654Z,16.60
2023-02-07T10:31:03.875Z,15.40
2023-02-07T10:34:45.576Z,15.90
2023-02-07T10:38:05.864Z,16.70
2023-02-07T10:41:44.142Z,15.50
2023-02-07T10:48:29.219Z,17.20
2023-02-07T10:52:12.626Z,15.60
2023-02-07T10:58:52.102Z,16.90
2023-02-07T11:10:19.565Z,18.60
2023-02-07T11:14:17.820Z,17.80
2023-02-07T11:28:40.525Z,13.80
2023-02-07T11:32:12.956Z,13.70
2023-02-07T11:43:14.693Z,11.40
2023-02-07T11:46:19.646Z,15.40
2023-02-07T11:49:42.642Z,11.70
2023-02-07T11:52:42.980Z,11.50
2023-02-07T12:06:14.276Z,14.40
2023-02-07T12:09:59.600Z,13.00
2023-02-07T12:13:38.728Z,13.00
2023-02-07T12:17:24.060Z,40.90
2023-02-07T12:25:57.185Z,11.90
2023-02-07T12:29:36.662Z,12.10
2023-02-07T12:33:05.629Z,12.40
2023-02-07T12:40:38.281Z,11.70
2023-02-07T12:47:46.330Z,11.70
2023-02-07T12:54:50.574Z,11.50
2023-02-07T13:00:06.644Z,10.60
2023-02-07T13:03:08.780Z,12.20
2023-02-07T13:06:50.113Z,11.90
2023-02-07T13:10:35.188Z,12.50
2023-02-07T13:14:17.886Z,10.60
2023-02-07T13:18:00.344Z,10.70
2023-02-07T13:21:43.905Z,10.40
2023-02-07T13:32:21.022Z,11.90
2023-02-07T13:39:45.981Z,12.30
2023-02-07T13:43:10.420Z,11.80
2023-02-07T13:46:39.964Z,12.80
2023-02-07T13:57:24.031Z,11.70
2023-02-07T14:00:52.991Z,12.90
2023-02-07T14:08:43.650Z,13.00
2023-02-07T14:12:21.934Z,14.20
2023-02-07T14:20:18.781Z,10.40
2023-02-07T14:31:36.427Z,9.90
2023-02-07T14:39:04.838Z,9.30
2023-02-07T14:58:09.368Z,9.30
2023-02-07T15:01:39.275Z,9.20
2023-02-07T15:05:11.817Z,8.60
2023-02-07T15:08:49.107Z,23.10
2023-02-07T15:12:37.394Z,11.30
2023-02-07T15:16:06.994Z,9.90
2023-02-07T15:19:37.318Z,6.70
2023-02-07T15:33:44.632Z,9.40
2023-02-07T15:37:29.330Z,10.20
2023-02-07T15:41:08.393Z,10.40
2023-02-07T15:44:47.390Z,11.00
2023-02-07T15:48:21.730Z,21.10
2023-02-07T15:51:40.683Z,10.70
2023-02-07T15:55:25.984Z,11.30
2023-02-07T16:18:18.318Z,19.30
2023-02-07T16:21:50.352Z,18.40
2023-02-07T16:24:52.397Z,18.60
2023-02-07T16:32:59.257Z,24.10
2023-02-07T16:36:31.518Z,19.50
2023-02-07T16:40:13.917Z,20.00
2023-02-07T17:05:43.967Z,21.00
2023-02-07T17:09:16.348Z,18.20
2023-02-07T17:12:45.995Z,21.80
2023-02-07T17:20:30.110Z,27.00
2023-02-07T17:24:02.667Z,27.20
2023-02-07T17:30:37.255Z,25.90
2023-02-07T17:34:14.570Z,25.00
2023-02-07T17:37:44.120Z,25.00
2023-02-07T17:41:15.646Z,25.00
2023-02-07T17:49:10.360Z,31.90
2023-02-07T17:53:15.613Z,25.90
2023-02-07T17:56:56.430Z,27.40
2023-02-07T18:00:16.884Z,28.10
2023-02-07T18:03:27.216Z,28.30
2023-02-07T18:07:01.687Z,27.40
2023-02-07T18:10:32.628Z,28.50
2023-02-07T18:17:48.008Z,26.80
2023-02-07T18:21:40.021Z,28.20
2023-02-07T18:25:15.672Z,33.70
2023-02-07T18:28:48.268Z,30.80
2023-02-07T18:39:12.402Z,33.90
2023-02-07T18:42:41.656Z,34.30
2023-02-07T18:46:17.214Z,29.50
2023-02-07T19:07:40.396Z,29.90
2023-02-07T19:11:21.556Z,31.30
2023-02-07T19:14:49.999Z,29.90
2023-02-07T19:17:43.625Z,32.20
2023-02-07T19:21:13.950Z,43.60
2023-02-07T19:25:30.041Z,36.00
2023-02-07T19:29:30.325Z,34.30
2023-02-07T19:33:21.351Z,35.80
2023-02-07T19:40:33.582Z,36.50
2023-02-07T19:44:47.427Z,31.70
2023-02-07T19:55:04.500Z,38.10
2023-02-07T19:58:36.950Z,42.00
2023-02-07T20:01:45.362Z,42.30
2023-02-07T20:05:03.578Z,36.80
2023-02-07T20:08:18.199Z,28.80
2023-02-07T20:18:40.155Z,32.20
2023-02-07T20:22:09.842Z,35.00
2023-02-07T20:25:30.344Z,29.00
2023-02-07T20:35:51.201Z,26.80
2023-02-07T20:46:06.230Z,28.70
2023-02-07T20:49:36.104Z,27.00
2023-02-07T20:52:56.506Z,24.70
2023-02-07T20:56:25.106Z,26.80
2023-02-07T21:00:02.443Z,22.60
2023-02-07T21:03:23.546Z,29.50
2023-02-07T21:06:43.050Z,21.00
2023-02-07T21:10:16.918Z,22.40
2023-02-07T21:17:04.794Z,20.00
2023-02-07T21:27:25.622Z,17.50
2023-02-07T21:30:54.557Z,18.70
2023-02-07T21:34:20.945Z,17.10
2023-02-07T21:44:55.488Z,15.00
2023-02-07T21:48:27.417Z,15.20
2023-02-07T21:52:04.343Z,17.10
2023-02-07T22:02:32.236Z,18.00
2023-02-07T22:13:04.420Z,14.30
2023-02-07T22:16:56.037Z,17.60
2023-02-07T22:20:20.333Z,17.50
2023-02-07T22:27:07.309Z,18.40
2023-02-07T22:30:40.988Z,19.70
2023-02-07T22:33:38.598Z,19.50
2023-02-07T22:47:04.175Z,17.70
2023-02-07T22:50:18.249Z,16.20
2023-02-07T22:53:46.709Z,18.20
2023-02-07T23:03:57.642Z,16.40
2023-02-07T23:07:48.392Z,16.20
2023-02-07T23:12:14.341Z,16.60
2023-02-07T23:15:42.775Z,15.20
2023-02-07T23:19:08.698Z,17.40
2023-02-07T23:22:37.479Z,17.80
2023-02-07T23:29:21.432Z,20.70
2023-02-07T23:33:40.397Z,18.40
2023-02-07T23:40:21.523Z,13.00
2023-02-07T23:43:53.109Z,12.20
2023-02-07T23:47:26.254Z,15.90
2023-02-07T23:53:50.180Z,14.50
